createdAt,value
2018-10-17T00:02:12.151Z,50.23
2018-10-17T00:04:41.847Z,53.27
2018-10-17T00:07:11.603Z,56.00
2018-10-17T00:09:41.226Z,47.90
2018-10-17T00:12:10.888Z,52.40
2018-10-17T00:14:40.612Z,40.90
2018-10-17T00:17:10.631Z,61.57
2018-10-17T00:19:40.249Z,45.57
2018-10-17T00:22:10.134Z,59.20
2018-10-17T00:24:39.805Z,44.50
2018-10-17T00:27:09.466Z,44.50
2018-10-17T00:29:39.172Z,39.60
2018-10-17T00:32:08.981Z,44.77
2018-10-17T00:34:38.680Z,45.27
2018-10-17T00:37:08.497Z,42.20
2018-10-17T00:39:38.282Z,50.00
2018-10-17T00:42:07.924Z,46.27
2018-10-17T00:44:37.740Z,53.30
2018-10-17T00:47:07.874Z,55.90
2018-10-17T00:49:37.537Z,45.43
2018-10-17T00:52:07.323Z,46.07
2018-10-17T00:54:36.964Z,50.43
2018-10-17T00:57:06.631Z,40.37
2018-10-17T00:59:36.248Z,43.53
2018-10-17T01:02:06.341Z,56.30
2018-10-17T01:04:36.093Z,48.23
2018-10-17T01:07:06.272Z,52.73
2018-10-17T01:09:35.904Z,46.27
2018-10-17T01:12:05.795Z,41.40
2018-10-17T01:14:35.517Z,50.87
2018-10-17T01:17:05.413Z,45.80
2018-10-17T01:19:35.119Z,41.00
2018-10-17T01:22:08.780Z,40.53
2018-10-17T01:24:38.345Z,41.30
2018-10-17T01:27:07.913Z,42.57
2018-10-17T01:29:37.484Z,42.90
2018-10-17T01:32:07.387Z,44.07
2018-10-17T01:34:36.914Z,51.90
2018-10-17T01:37:06.532Z,32.93
2018-10-17T01:39:36.053Z,42.10
2018-10-17T01:42:06.322Z,55.77
2018-10-17T01:44:35.883Z,48.43
2018-10-17T01:47:05.545Z,50.30
2018-10-17T01:49:35.065Z,44.73
2018-10-17T01:52:04.885Z,59.67
2018-10-17T01:54:34.452Z,51.87
2018-10-17T01:57:04.112Z,47.60
2018-10-17T01:59:33.620Z,53.53
2018-10-17T02:02:03.242Z,45.93
2018-10-17T02:04:32.761Z,41.20
2018-10-17T02:07:02.438Z,42.50
2018-10-17T02:09:32.012Z,55.93
2018-10-17T02:12:01.581Z,43.23
2018-10-17T02:14:31.117Z,54.33
2018-10-17T02:17:00.895Z,56.23
2018-10-17T02:19:30.473Z,48.40
2018-10-17T02:22:00.018Z,56.07
2018-10-17T02:24:29.605Z,43.87
2018-10-17T02:26:59.161Z,52.03
2018-10-17T02:29:29.193Z,53.50
2018-10-17T02:31:58.791Z,55.90
2018-10-17T02:34:28.336Z,46.80
2018-10-17T02:36:57.935Z,54.53
2018-10-17T02:39:27.511Z,45.70
2018-10-17T02:41:57.006Z,54.90
2018-10-17T02:44:26.533Z,46.13
2018-10-17T02:46:56.135Z,49.80
2018-10-17T02:49:25.665Z,48.60
2018-10-17T02:51:55.355Z,55.60
2018-10-17T02:54:24.982Z,50.30
2018-10-17T02:56:54.517Z,45.67
2018-10-17T02:59:24.101Z,51.43
2018-10-17T03:01:53.679Z,65.27
2018-10-17T03:04:23.271Z,58.57
2018-10-17T03:06:52.825Z,39.37
2018-10-17T03:09:22.392Z,40.10
2018-10-17T03:11:51.913Z,45.27
2018-10-17T03:14:21.568Z,48.60
2018-10-17T03:16:51.217Z,59.17
2018-10-17T03:19:20.846Z,44.57
2018-10-17T03:21:50.353Z,44.53
2018-10-17T03:24:19.927Z,43.17
2018-10-17T03:26:49.472Z,49.20
2018-10-17T03:29:19.179Z,47.17
2018-10-17T03:31:48.678Z,38.80
2018-10-17T03:34:18.295Z,54.73
2018-10-17T03:36:47.836Z,42.80
2018-10-17T03:39:17.441Z,52.20
2018-10-17T03:41:47.031Z,46.57
2018-10-17T03:44:16.614Z,41.87
2018-10-17T03:46:46.223Z,57.03
2018-10-17T03:49:16.029Z,46.43
2018-10-17T03:51:45.423Z,58.67
2018-10-17T03:54:14.945Z,50.90
2018-10-17T03:56:44.571Z,67.57
2018-10-17T03:59:14.377Z,44.20
2018-10-17T04:01:44.051Z,60.20
2018-10-17T04:04:13.793Z,75.03
2018-10-17T04:06:43.397Z,59.03
2018-10-17T04:09:12.979Z,56.93
2018-10-17T04:11:42.557Z,50.00
2018-10-17T04:14:12.104Z,49.33
2018-10-17T04:16:41.730Z,44.00
2018-10-17T04:19:11.332Z,50.50
2018-10-17T04:21:40.929Z,43.50
2018-10-17T04:24:10.456Z,55.13
2018-10-17T04:26:40.130Z,61.13
2018-10-17T04:29:09.770Z,51.73
2018-10-17T04:31:39.437Z,46.13
2018-10-17T04:34:09.053Z,47.80
2018-10-17T04:36:38.662Z,54.47
2018-10-17T04:39:10.655Z,45.00
2018-10-17T04:41:40.501Z,47.70
2018-10-17T04:44:11.035Z,41.50
2018-10-17T04:46:40.681Z,42.23
2018-10-17T04:49:10.477Z,39.90
2018-10-17T04:51:40.151Z,44.43
2018-10-17T04:54:09.922Z,46.53
2018-10-17T04:56:39.533Z,41.93
2018-10-17T04:59:09.255Z,51.40
2018-10-17T05:01:38.805Z,41.03
2018-10-17T05:04:08.439Z,53.20
2018-10-17T05:06:38.122Z,64.57
2018-10-17T05:09:10.844Z,51.57
2018-10-17T05:11:40.942Z,59.27
2018-10-17T05:14:10.498Z,52.07
2018-10-17T05:16:40.100Z,54.97
2018-10-17T05:19:09.753Z,44.77
2018-10-17T05:21:45.883Z,50.03
2018-10-17T05:24:15.613Z,56.70
2018-10-17T05:26:45.281Z,43.93
2018-10-17T05:29:15.094Z,44.23
2018-10-17T05:31:44.700Z,65.70
2018-10-17T05:34:14.290Z,49.73
2018-10-17T05:36:43.934Z,49.57
2018-10-17T05:39:13.543Z,56.43
2018-10-17T05:41:43.149Z,69.00
2018-10-17T05:44:12.749Z,55.53
2018-10-17T05:46:42.366Z,52.97
2018-10-17T05:49:12.084Z,44.60
2018-10-17T05:51:41.539Z,62.93
2018-10-17T05:54:11.168Z,54.73
2018-10-17T05:56:40.735Z,49.53
2018-10-17T05:59:10.424Z,52.70
2018-10-17T06:01:40.115Z,58.57
2018-10-17T06:04:09.760Z,70.17
2018-10-17T06:06:39.355Z,53.40
2018-10-17T06:09:11.245Z,45.97
2018-10-17T06:11:41.029Z,45.67
2018-10-17T06:14:14.653Z,43.37
2018-10-17T06:16:44.978Z,50.03
2018-10-17T06:19:14.867Z,63.97
2018-10-17T06:21:44.401Z,76.03
2018-10-17T06:24:13.985Z,42.63
2018-10-17T06:26:43.557Z,49.83
2018-10-17T06:29:13.210Z,47.13
2018-10-17T06:31:42.695Z,39.93
2018-10-17T06:34:12.328Z,46.50
2018-10-17T06:36:41.845Z,51.20
2018-10-17T06:39:12.385Z,45.87
2018-10-17T06:41:42.031Z,36.73
2018-10-17T06:44:11.861Z,46.83
2018-10-17T06:46:41.404Z,50.93
2018-10-17T06:49:11.069Z,33.37
2018-10-17T06:51:40.680Z,53.33
2018-10-17T06:54:10.493Z,36.47
2018-10-17T06:56:40.140Z,52.17
2018-10-17T06:59:09.982Z,40.77
2018-10-17T07:01:39.663Z,49.63
2018-10-17T07:04:09.653Z,49.77
2018-10-17T07:06:39.271Z,50.83
2018-10-17T07:09:10.786Z,63.93
2018-10-17T07:11:40.530Z,40.83
2018-10-17T07:14:10.203Z,96.80
2018-10-17T07:16:39.812Z,47.27
2018-10-17T07:19:09.459Z,53.83
2018-10-17T07:21:38.990Z,48.20
2018-10-17T07:24:08.720Z,50.13
2018-10-17T07:26:38.509Z,47.80
2018-10-17T07:29:08.169Z,53.53
2018-10-17T07:31:37.736Z,46.37
2018-10-17T07:34:07.342Z,43.47
2018-10-17T07:36:37.108Z,53.63
2018-10-17T07:39:09.554Z,40.47
2018-10-17T07:41:39.109Z,75.63
2018-10-17T07:44:09.025Z,40.63
2018-10-17T07:46:38.791Z,61.23
2018-10-17T07:49:08.382Z,44.13
2018-10-17T07:51:38.211Z,45.33
2018-10-17T07:54:07.906Z,45.73
2018-10-17T07:56:37.562Z,38.00
2018-10-17T07:59:07.417Z,45.37
2018-10-17T08:01:37.239Z,47.93
2018-10-17T08:04:07.090Z,47.47
2018-10-17T08:06:36.685Z,49.17
2018-10-17T08:09:10.457Z,50.97
2018-10-17T08:11:40.185Z,65.87
2018-10-17T08:14:10.153Z,44.97
2018-10-17T08:16:39.624Z,47.87
2018-10-17T08:19:09.209Z,40.00
2018-10-17T08:21:39.030Z,44.53
2018-10-17T08:24:08.632Z,43.60
2018-10-17T08:26:38.231Z,43.70
2018-10-17T08:29:07.838Z,54.50
2018-10-17T08:31:37.442Z,50.70
2018-10-17T08:34:07.028Z,46.90
2018-10-17T08:36:36.780Z,42.43
2018-10-17T08:39:09.269Z,40.40
2018-10-17T08:41:38.810Z,51.30
2018-10-17T08:44:08.458Z,53.10
2018-10-17T08:46:37.945Z,43.90
2018-10-17T08:49:07.536Z,45.80
2018-10-17T08:51:37.107Z,43.63
2018-10-17T08:54:06.788Z,48.27
2018-10-17T08:56:36.372Z,39.93
2018-10-17T08:59:05.953Z,48.00
2018-10-17T09:01:35.560Z,51.53
2018-10-17T09:04:05.809Z,44.83
2018-10-17T09:06:35.533Z,45.97
2018-10-17T09:09:09.569Z,42.67
2018-10-17T09:11:39.889Z,42.00
2018-10-17T09:14:09.872Z,54.73
2018-10-17T09:16:39.958Z,37.97
2018-10-17T09:19:10.066Z,44.60
2018-10-17T09:21:40.228Z,32.70
2018-10-17T09:24:09.684Z,38.30
2018-10-17T09:26:39.368Z,42.17
2018-10-17T09:29:08.896Z,33.40
2018-10-17T09:31:38.446Z,51.73
2018-10-17T09:34:18.976Z,39.60
2018-10-17T09:36:48.487Z,51.20
2018-10-17T09:39:18.280Z,39.87
2018-10-17T09:41:47.862Z,49.27
2018-10-17T09:44:17.391Z,37.00
2018-10-17T09:46:46.927Z,38.93
2018-10-17T09:49:16.480Z,39.50
2018-10-17T09:51:46.018Z,47.93
2018-10-17T09:54:15.652Z,38.30
2018-10-17T09:56:45.159Z,51.07
2018-10-17T09:59:14.787Z,45.90
2018-10-17T10:01:47.766Z,40.77
2018-10-17T10:04:17.344Z,47.23
2018-10-17T10:06:47.087Z,48.57
2018-10-17T10:09:16.630Z,60.90
2018-10-17T10:11:46.159Z,38.53
2018-10-17T10:14:15.707Z,43.73
2018-10-17T10:16:45.229Z,47.53
2018-10-17T10:19:14.780Z,46.93
2018-10-17T10:21:44.372Z,46.60
2018-10-17T10:24:14.231Z,44.80
2018-10-17T10:26:43.778Z,43.90
2018-10-17T10:29:13.313Z,51.87
2018-10-17T10:43:33.174Z,43.50
2018-10-17T10:46:02.598Z,57.27
2018-10-17T10:48:31.979Z,47.83
2018-10-17T10:51:01.366Z,41.73
2018-10-17T10:53:30.682Z,41.77
2018-10-17T10:56:00.106Z,46.67
2018-10-17T10:58:29.631Z,43.90
2018-10-17T11:00:59.055Z,38.80
2018-10-17T11:03:28.432Z,44.27
2018-10-17T11:05:57.796Z,55.27
2018-10-17T11:08:27.158Z,45.97
2018-10-17T11:10:56.543Z,42.67
2018-10-17T11:13:25.985Z,41.53
2018-10-17T11:15:55.351Z,43.40
2018-10-17T11:18:24.699Z,59.37
2018-10-17T11:20:54.128Z,38.47
2018-10-17T11:23:23.482Z,53.27
2018-10-17T11:25:52.914Z,42.30
2018-10-17T11:28:22.347Z,43.10
2018-10-17T11:30:51.688Z,39.53
2018-10-17T11:33:21.074Z,37.97
2018-10-17T11:35:50.435Z,38.77
2018-10-17T11:38:19.867Z,39.47
2018-10-17T11:40:49.266Z,53.63
2018-10-17T11:43:18.649Z,40.50
2018-10-17T11:45:48.054Z,55.63
2018-10-17T11:48:17.407Z,48.63
2018-10-17T11:50:46.965Z,36.67
2018-10-17T11:53:16.451Z,34.83
2018-10-17T11:55:45.826Z,45.93
2018-10-17T11:58:15.208Z,44.87
2018-10-17T12:00:44.622Z,38.50
2018-10-17T12:03:14.073Z,41.53
2018-10-17T12:05:43.548Z,35.28
2018-10-17T12:08:12.820Z,32.83
2018-10-17T12:10:42.239Z,44.73
2018-10-17T12:13:11.662Z,48.13
2018-10-17T12:15:43.766Z,38.80
2018-10-17T12:18:13.586Z,38.83
2018-10-17T12:20:42.910Z,34.27
2018-10-17T12:23:12.300Z,36.93
2018-10-17T12:25:41.659Z,32.93
2018-10-17T12:28:11.173Z,36.70
2018-10-17T12:30:40.406Z,27.63
2018-10-17T12:33:09.907Z,38.77
2018-10-17T12:35:39.323Z,39.93
2018-10-17T12:38:08.693Z,43.50
2018-10-17T12:40:38.403Z,37.23
2018-10-17T12:43:07.550Z,33.30
2018-10-17T12:45:36.940Z,40.63
2018-10-17T12:48:06.710Z,29.83
2018-10-17T12:51:39.424Z,35.53
2018-10-17T12:54:08.809Z,48.63
2018-10-17T12:56:38.227Z,42.43
2018-10-17T12:59:07.699Z,30.10
2018-10-17T13:01:37.008Z,38.67
2018-10-17T13:04:06.471Z,47.33
2018-10-17T13:06:36.021Z,33.67
2018-10-17T13:09:09.931Z,37.10
2018-10-17T13:11:39.471Z,37.60
2018-10-17T13:14:09.263Z,38.17
2018-10-17T13:16:38.638Z,49.27
2018-10-17T13:19:08.063Z,30.57
2018-10-17T13:21:37.366Z,38.30
2018-10-17T13:24:07.179Z,40.57
2018-10-17T13:26:36.548Z,32.50
2018-10-17T13:29:06.867Z,53.13
2018-10-17T13:31:36.482Z,39.03
2018-10-17T13:34:06.518Z,32.50
2018-10-17T13:36:36.242Z,37.67
2018-10-17T13:39:10.027Z,49.80
2018-10-17T13:41:39.518Z,53.40
2018-10-17T13:44:09.624Z,44.83
2018-10-17T13:46:39.369Z,38.03
2018-10-17T13:49:08.847Z,46.93
2018-10-17T13:51:38.131Z,46.80
2018-10-17T13:54:07.543Z,41.27
2018-10-17T13:56:36.919Z,36.57
2018-10-17T13:59:06.457Z,52.30
2018-10-17T14:01:35.814Z,38.67
2018-10-17T14:04:05.286Z,43.30
2018-10-17T14:06:34.618Z,43.60
2018-10-17T14:09:05.193Z,35.73
2018-10-17T14:11:34.577Z,37.03
2018-10-17T14:14:03.862Z,52.37
2018-10-17T14:16:33.298Z,45.20
2018-10-17T14:19:02.661Z,45.23
2018-10-17T14:21:32.082Z,42.80
2018-10-17T14:24:01.543Z,58.00
2018-10-17T14:26:30.898Z,42.07
2018-10-17T14:29:00.342Z,40.20
2018-10-17T14:31:29.694Z,42.23
2018-10-17T14:33:59.129Z,29.83
2018-10-17T14:36:28.742Z,37.40
2018-10-17T14:38:58.172Z,37.23
2018-10-17T14:41:27.604Z,43.30
2018-10-17T14:43:56.974Z,38.37
2018-10-17T14:46:26.332Z,36.30
2018-10-17T14:48:55.699Z,29.20
2018-10-17T14:51:25.070Z,44.43
2018-10-17T14:53:54.446Z,54.93
2018-10-17T14:56:23.825Z,36.07
2018-10-17T14:58:53.249Z,41.10
2018-10-17T15:01:22.593Z,31.30
2018-10-17T15:03:52.034Z,48.23
2018-10-17T15:06:21.411Z,30.60
2018-10-17T15:08:50.840Z,47.73
2018-10-17T15:11:20.451Z,48.60
2018-10-17T15:13:49.607Z,42.40
2018-10-17T15:16:19.024Z,34.10
2018-10-17T15:18:48.481Z,41.43
2018-10-17T15:21:18.178Z,42.30
2018-10-17T15:23:47.414Z,45.73
2018-10-17T15:26:16.827Z,45.80
2018-10-17T15:28:46.211Z,42.57
2018-10-17T15:31:16.977Z,39.50
2018-10-17T15:33:46.432Z,46.67
2018-10-17T15:36:15.912Z,43.13
2018-10-17T15:38:45.249Z,40.43
2018-10-17T15:41:14.660Z,60.57
2018-10-17T15:43:44.103Z,47.10
2018-10-17T15:46:13.535Z,51.97
2018-10-17T15:48:42.934Z,50.17
2018-10-17T15:51:12.426Z,45.43
2018-10-17T15:53:41.979Z,48.70
2018-10-17T15:56:17.875Z,52.17
2018-10-17T15:58:47.246Z,50.30
2018-10-17T16:01:16.793Z,46.03
2018-10-17T16:03:46.287Z,55.57
2018-10-17T16:06:15.817Z,48.03
2018-10-17T16:08:45.080Z,56.50
2018-10-17T16:11:14.475Z,52.93
2018-10-17T16:13:43.897Z,61.00
2018-10-17T16:16:13.327Z,61.20
2018-10-17T16:18:42.747Z,53.40
2018-10-17T16:21:12.157Z,52.50
2018-10-17T16:23:41.537Z,48.40
2018-10-17T16:26:10.934Z,70.90
2018-10-17T16:28:40.319Z,53.37
2018-10-17T16:31:09.829Z,58.00
2018-10-17T16:33:39.132Z,58.47
2018-10-17T16:36:08.588Z,60.40
2018-10-17T16:38:37.897Z,71.70
2018-10-17T16:41:07.392Z,61.13
2018-10-17T16:43:36.783Z,59.17
2018-10-17T16:46:06.345Z,67.47
2018-10-17T16:48:35.751Z,83.10
2018-10-17T16:51:05.315Z,64.20
2018-10-17T16:53:35.071Z,61.53
2018-10-17T16:56:04.482Z,65.27
2018-10-17T16:58:33.969Z,64.53
2018-10-17T17:01:03.323Z,60.23
2018-10-17T17:03:32.769Z,58.53
2018-10-17T17:06:02.244Z,68.67
2018-10-17T17:08:31.580Z,69.53
2018-10-17T17:11:00.954Z,62.97
2018-10-17T17:13:30.355Z,58.87
2018-10-17T17:15:59.753Z,45.57
2018-10-17T17:18:29.167Z,71.30
2018-10-17T17:21:00.041Z,57.83
2018-10-17T17:23:29.575Z,65.50
2018-10-17T17:25:58.988Z,56.90
2018-10-17T17:28:28.423Z,62.77
2018-10-17T17:30:57.824Z,60.50
2018-10-17T17:33:27.210Z,87.27
2018-10-17T17:35:56.710Z,65.77
2018-10-17T17:38:26.090Z,59.73
2018-10-17T17:40:55.450Z,79.83
2018-10-17T17:43:25.047Z,73.57
2018-10-17T17:45:54.454Z,85.40
2018-10-17T17:48:23.790Z,82.67
2018-10-17T17:50:53.243Z,73.50
2018-10-17T17:53:22.610Z,80.63
2018-10-17T17:55:52.018Z,72.00
2018-10-17T17:58:21.483Z,66.10
2018-10-17T18:00:50.888Z,71.53
2018-10-17T18:03:20.279Z,62.17
2018-10-17T18:05:49.716Z,70.17
2018-10-17T18:08:19.123Z,57.93
2018-10-17T18:10:48.519Z,70.40
2018-10-17T18:13:17.905Z,73.43
2018-10-17T18:15:47.419Z,59.07
2018-10-17T18:18:17.106Z,71.83
2018-10-17T18:20:46.503Z,64.50
2018-10-17T18:23:15.874Z,71.63
2018-10-17T18:25:45.282Z,73.07
2018-10-17T18:28:14.767Z,60.60
2018-10-17T18:30:44.082Z,67.53
2018-10-17T18:33:13.434Z,75.97
2018-10-17T18:35:42.791Z,69.97
2018-10-17T18:38:12.165Z,74.67
2018-10-17T18:40:41.648Z,69.70
2018-10-17T18:43:11.019Z,66.17
2018-10-17T18:45:40.491Z,61.27
2018-10-17T18:48:09.933Z,65.37
2018-10-17T18:50:39.350Z,70.50
2018-10-17T18:53:08.738Z,65.80
2018-10-17T18:55:38.166Z,76.60
2018-10-17T18:58:07.506Z,59.97
2018-10-17T19:00:36.886Z,83.87
2018-10-17T19:03:06.953Z,72.87
2018-10-17T19:05:36.796Z,61.57
2018-10-17T19:08:06.883Z,63.83
2018-10-17T19:10:36.207Z,67.63
2018-10-17T19:13:05.798Z,65.13
2018-10-17T19:15:35.303Z,66.47
2018-10-17T19:18:04.735Z,60.80
2018-10-17T19:20:34.126Z,68.47
2018-10-17T19:23:03.574Z,78.03
2018-10-17T19:25:32.936Z,65.70
2018-10-17T19:28:02.641Z,68.17
2018-10-17T19:30:33.824Z,72.00
2018-10-17T19:33:03.234Z,68.00
2018-10-17T19:35:32.656Z,61.90
2018-10-17T19:38:02.076Z,81.87
2018-10-17T19:40:31.787Z,64.10
2018-10-17T19:43:01.180Z,68.27
2018-10-17T19:45:30.600Z,63.53
2018-10-17T19:48:00.040Z,75.83
2018-10-17T19:50:29.422Z,89.10
2018-10-17T19:52:58.824Z,70.00
2018-10-17T19:55:28.243Z,67.97
2018-10-17T19:57:57.671Z,69.43
2018-10-17T20:00:27.063Z,74.87
2018-10-17T20:02:56.522Z,83.13
2018-10-17T20:05:25.863Z,72.27
2018-10-17T20:07:55.283Z,77.30
2018-10-17T20:10:24.772Z,71.37
2018-10-17T20:12:54.177Z,65.40
2018-10-17T20:15:23.611Z,69.43
2018-10-17T20:17:53.043Z,83.23
2018-10-17T20:20:22.535Z,74.57
2018-10-17T20:22:52.016Z,85.43
2018-10-17T20:25:21.454Z,65.97
2018-10-17T20:27:50.877Z,81.20
2018-10-17T20:30:20.262Z,75.90
2018-10-17T20:32:49.667Z,67.17
2018-10-17T20:35:19.099Z,73.23
2018-10-17T20:37:48.526Z,85.67
2018-10-17T20:40:17.951Z,75.33
2018-10-17T20:42:47.394Z,84.00
2018-10-17T20:45:16.815Z,69.00
2018-10-17T20:47:46.218Z,82.33
2018-10-17T20:50:15.746Z,66.50
2018-10-17T20:52:45.105Z,70.40
2018-10-17T20:55:14.554Z,63.17
2018-10-17T20:57:44.013Z,107.00
2018-10-17T21:00:13.440Z,64.73
2018-10-17T21:02:42.844Z,71.20
2018-10-17T21:05:12.259Z,65.03
2018-10-17T21:07:41.690Z,80.43
2018-10-17T21:10:11.114Z,74.17
2018-10-17T21:12:40.593Z,70.50
2018-10-17T21:15:10.288Z,67.50
2018-10-17T21:17:39.688Z,88.20
2018-10-17T21:20:09.106Z,76.27
2018-10-17T21:22:38.490Z,75.40
2018-10-17T21:25:07.938Z,82.33
2018-10-17T21:27:37.348Z,85.70
2018-10-17T21:30:08.591Z,88.50
2018-10-17T21:32:37.996Z,84.57
2018-10-17T21:35:19.815Z,83.00
2018-10-17T21:37:49.301Z,87.73
2018-10-17T21:40:18.594Z,81.17
2018-10-17T21:42:47.978Z,72.70
2018-10-17T21:45:17.428Z,80.43
2018-10-17T21:47:46.843Z,71.23
2018-10-17T21:50:16.240Z,86.83
2018-10-17T21:52:45.797Z,81.37
2018-10-17T21:55:15.180Z,69.03
2018-10-17T21:57:44.598Z,75.10
2018-10-17T22:00:14.447Z,85.73
2018-10-17T22:02:43.882Z,69.20
2018-10-17T22:05:13.271Z,77.83
2018-10-17T22:07:42.824Z,108.87
2018-10-17T22:10:12.217Z,71.50
2018-10-17T22:12:41.645Z,74.40
2018-10-17T22:15:11.524Z,76.97
2018-10-17T22:17:40.966Z,80.20
2018-10-17T22:20:10.525Z,79.70
2018-10-17T22:22:39.753Z,75.33
2018-10-17T22:25:09.181Z,75.57
2018-10-17T22:27:38.655Z,78.10
2018-10-17T22:30:08.266Z,90.07
2018-10-17T22:32:37.592Z,81.87
2018-10-17T22:35:13.896Z,81.30
2018-10-17T22:37:43.259Z,78.37
2018-10-17T22:40:12.728Z,82.73
2018-10-17T22:42:42.180Z,83.83
2018-10-17T22:45:11.551Z,81.07
2018-10-17T22:47:40.926Z,81.60
2018-10-17T22:50:11.001Z,76.13
2018-10-17T22:52:40.681Z,79.97
2018-10-17T22:55:10.208Z,79.40
2018-10-17T22:57:39.635Z,78.33
2018-10-17T23:00:09.888Z,73.20
2018-10-17T23:02:39.286Z,84.03
2018-10-17T23:05:09.526Z,88.63
2018-10-17T23:07:38.895Z,87.30
2018-10-17T23:10:08.351Z,83.27
2018-10-17T23:12:37.701Z,86.23
2018-10-17T23:15:15.182Z,82.50
2018-10-17T23:17:44.586Z,84.10
2018-10-17T23:20:14.040Z,83.80
2018-10-17T23:22:43.289Z,80.43
2018-10-17T23:25:12.883Z,76.27
2018-10-17T23:27:42.454Z,79.77
2018-10-17T23:30:11.831Z,83.60
2018-10-17T23:32:41.254Z,85.37
2018-10-17T23:35:10.658Z,77.47
2018-10-17T23:37:40.047Z,73.43
2018-10-17T23:40:09.794Z,76.57
2018-10-17T23:42:39.216Z,76.03
2018-10-17T23:45:08.834Z,91.37
2018-10-17T23:47:38.288Z,93.17
2018-10-17T23:50:07.754Z,81.00
2018-10-17T23:52:37.046Z,83.90
2018-10-17T23:55:07.393Z,95.93
2018-10-17T23:57:36.798Z,97.93
